sensor_id;sensor_type;location;lat;lon;timestamp;pressure;altitude;pressure_sealevel;temperature;humidity
72612;BME280;60655;52.182;4.474;2023-05-02T00:01:20;102051.34;;;10.87;91.29
72612;BME280;60655;52.182;4.474;2023-05-02T00:03:21;102043.28;;;10.80;91.53
72612;BME280;60655;52.182;4.474;2023-05-02T00:05:22;102044.44;;;10.93;91.48
72612;BME280;60655;52.182;4.474;2023-05-02T00:07:24;102053.16;;;10.87;90.71
72612;BME280;60655;52.182;4.474;2023-05-02T00:09:26;102040.69;;;10.87;91.33
72612;BME280;60655;52.182;4.474;2023-05-02T00:11:27;102047.78;;;11.01;91.09
72612;BME280;60655;52.182;4.474;2023-05-02T00:13:28;102050.25;;;10.81;91.45
72612;BME280;60655;52.182;4.474;2023-05-02T00:15:29;102052.72;;;10.83;92.30
72612;BME280;60655;52.182;4.474;2023-05-02T00:17:30;102044.94;;;10.81;91.75
72612;BME280;60655;52.182;4.474;2023-05-02T00:19:31;102054.63;;;10.89;92.04
72612;BME280;60655;52.182;4.474;2023-05-02T00:21:32;102051.53;;;10.71;93.30
72612;BME280;60655;52.182;4.474;2023-05-02T00:23:33;102055.56;;;10.81;92.36
72612;BME280;60655;52.182;4.474;2023-05-02T00:25:34;102055.09;;;10.78;91.82
72612;BME280;60655;52.182;4.474;2023-05-02T00:27:35;102061.63;;;10.75;92.43
72612;BME280;60655;52.182;4.474;2023-05-02T00:29:36;102057.56;;;10.79;92.42
72612;BME280;60655;52.182;4.474;2023-05-02T00:31:39;102062.84;;;10.58;92.55
72612;BME280;60655;52.182;4.474;2023-05-02T00:33:40;102063.22;;;10.55;92.53
72612;BME280;60655;52.182;4.474;2023-05-02T00:35:41;102062.69;;;10.60;92.50
72612;BME280;60655;52.182;4.474;2023-05-02T00:37:42;102068.34;;;10.57;91.71
72612;BME280;60655;52.182;4.474;2023-05-02T00:39:43;102073.50;;;10.43;92.06
72612;BME280;60655;52.182;4.474;2023-05-02T00:41:44;102072.69;;;10.28;92.18
72612;BME280;60655;52.182;4.474;2023-05-02T00:43:45;102070.38;;;10.40;90.87
72612;BME280;60655;52.182;4.474;2023-05-02T00:45:47;102072.25;;;10.39;90.62
72612;BME280;60655;52.182;4.474;2023-05-02T00:47:48;102081.84;;;10.26;90.35
72612;BME280;60655;52.182;4.474;2023-05-02T00:49:50;102075.16;;;10.30;90.37
72612;BME280;60655;52.182;4.474;2023-05-02T00:51:52;102077.09;;;10.36;89.56
72612;BME280;60655;52.182;4.474;2023-05-02T00:53:53;102082.41;;;10.36;89.33
72612;BME280;60655;52.182;4.474;2023-05-02T00:55:57;102078.34;;;10.40;88.92
72612;BME280;60655;52.182;4.474;2023-05-02T00:57:58;102078.81;;;10.43;88.64
72612;BME280;60655;52.182;4.474;2023-05-02T00:59:59;102084.75;;;10.45;88.41
72612;BME280;60655;52.182;4.474;2023-05-02T01:08:56;102079.38;;;10.24;90.06
72612;BME280;60655;52.182;4.474;2023-05-02T01:11:16;102103.72;;;10.28;89.77
72612;BME280;60655;52.182;4.474;2023-05-02T01:13:28;102094.84;;;10.21;89.01
72612;BME280;60655;52.182;4.474;2023-05-02T01:15:32;102093.03;;;10.36;88.68
72612;BME280;60655;52.182;4.474;2023-05-02T01:17:35;102090.91;;;10.31;89.04
72612;BME280;60655;52.182;4.474;2023-05-02T01:19:43;102080.38;;;10.23;88.71
72612;BME280;60655;52.182;4.474;2023-05-02T01:21:45;102101.66;;;10.15;89.62
72612;BME280;60655;52.182;4.474;2023-05-02T01:24:06;102096.72;;;10.12;89.74
72612;BME280;60655;52.182;4.474;2023-05-02T01:30:29;102112.25;;;10.23;87.22
72612;BME280;60655;52.182;4.474;2023-05-02T01:32:33;102111.59;;;10.21;86.68
72612;BME280;60655;52.182;4.474;2023-05-02T01:34:37;102113.25;;;10.22;85.84
72612;BME280;60655;52.182;4.474;2023-05-02T01:36:44;102111.69;;;10.28;85.20
72612;BME280;60655;52.182;4.474;2023-05-02T01:38:46;102108.69;;;10.31;84.48
72612;BME280;60655;52.182;4.474;2023-05-02T01:40:49;102105.16;;;10.01;85.91
72612;BME280;60655;52.182;4.474;2023-05-02T01:42:52;102110.75;;;10.06;85.84
72612;BME280;60655;52.182;4.474;2023-05-02T01:44:54;102111.66;;;10.13;85.14
72612;BME280;60655;52.182;4.474;2023-05-02T01:46:56;102108.16;;;10.12;85.24
72612;BME280;60655;52.182;4.474;2023-05-02T01:49:02;102116.09;;;10.21;84.66
72612;BME280;60655;52.182;4.474;2023-05-02T01:51:04;102122.22;;;10.21;86.20
72612;BME280;60655;52.182;4.474;2023-05-02T01:53:08;102123.56;;;10.17;84.77
72612;BME280;60655;52.182;4.474;2023-05-02T01:55:12;102133.53;;;10.00;84.57
72612;BME280;60655;52.182;4.474;2023-05-02T01:57:16;102129.88;;;10.16;83.82
72612;BME280;60655;52.182;4.474;2023-05-02T01:59:19;102133.94;;;10.27;83.25
72612;BME280;60655;52.182;4.474;2023-05-02T02:01:23;102136.47;;;10.05;83.56
72612;BME280;60655;52.182;4.474;2023-05-02T02:03:29;102130.44;;;9.74;84.19
72612;BME280;60655;52.182;4.474;2023-05-02T02:05:31;102142.84;;;9.96;84.42
72612;BME280;60655;52.182;4.474;2023-05-02T02:07:33;102147.25;;;10.04;83.26
72612;BME280;60655;52.182;4.474;2023-05-02T02:09:34;102146.50;;;9.95;82.78
72612;BME280;60655;52.182;4.474;2023-05-02T02:11:44;102152.91;;;10.24;82.84
72612;BME280;60655;52.182;4.474;2023-05-02T02:13:54;102149.00;;;10.11;81.79
72612;BME280;60655;52.182;4.474;2023-05-02T02:16:03;102167.03;;;10.16;81.77
72612;BME280;60655;52.182;4.474;2023-05-02T02:18:19;102156.44;;;10.16;80.11
72612;BME280;60655;52.182;4.474;2023-05-02T02:20:21;102166.97;;;10.09;80.20
72612;BME280;60655;52.182;4.474;2023-05-02T02:22:25;102176.38;;;10.12;79.73
72612;BME280;60655;52.182;4.474;2023-05-02T02:24:27;102160.06;;;10.00;80.13
72612;BME280;60655;52.182;4.474;2023-05-02T02:26:30;102168.88;;;10.01;79.29
72612;BME280;60655;52.182;4.474;2023-05-02T02:28:31;102167.38;;;9.98;79.28
72612;BME280;60655;52.182;4.474;2023-05-02T02:30:33;102171.50;;;10.01;78.72
72612;BME280;60655;52.182;4.474;2023-05-02T02:32:35;102171.94;;;9.90;79.49
72612;BME280;60655;52.182;4.474;2023-05-02T02:34:36;102176.59;;;9.88;80.74
72612;BME280;60655;52.182;4.474;2023-05-02T02:38:59;102181.13;;;10.02;79.65
72612;BME280;60655;52.182;4.474;2023-05-02T02:41:16;102181.78;;;10.04;79.95
72612;BME280;60655;52.182;4.474;2023-05-02T02:43:36;102177.75;;;10.08;80.61
72612;BME280;60655;52.182;4.474;2023-05-02T02:48:11;102179.25;;;9.88;80.01
72612;BME280;60655;52.182;4.474;2023-05-02T02:50:38;102188.44;;;10.00;80.68
72612;BME280;60655;52.182;4.474;2023-05-02T02:52:56;102189.16;;;9.94;80.72
72612;BME280;60655;52.182;4.474;2023-05-02T02:55:06;102195.66;;;9.91;80.77
72612;BME280;60655;52.182;4.474;2023-05-02T03:00:18;102202.44;;;9.71;81.48
72612;BME280;60655;52.182;4.474;2023-05-02T03:02:21;102201.91;;;9.75;81.46
72612;BME280;60655;52.182;4.474;2023-05-02T03:04:29;102208.06;;;9.76;80.66
72612;BME280;60655;52.182;4.474;2023-05-02T03:06:31;102204.28;;;9.70;80.86
72612;BME280;60655;52.182;4.474;2023-05-02T03:08:39;102211.09;;;9.88;81.61
72612;BME280;60655;52.182;4.474;2023-05-02T03:10:43;102219.34;;;9.93;78.87
72612;BME280;60655;52.182;4.474;2023-05-02T03:12:44;102219.41;;;9.85;79.55
72612;BME280;60655;52.182;4.474;2023-05-02T03:14:45;102219.13;;;9.79;80.28
72612;BME280;60655;52.182;4.474;2023-05-02T03:16:46;102214.53;;;9.96;80.10
72612;BME280;60655;52.182;4.474;2023-05-02T03:18:47;102221.66;;;9.96;78.19
72612;BME280;60655;52.182;4.474;2023-05-02T03:20:48;102223.25;;;9.82;78.57
72612;BME280;60655;52.182;4.474;2023-05-02T03:22:49;102229.16;;;9.92;77.19
72612;BME280;60655;52.182;4.474;2023-05-02T03:24:49;102225.31;;;9.95;76.73
72612;BME280;60655;52.182;4.474;2023-05-02T03:26:56;102231.31;;;9.89;76.09
72612;BME280;60655;52.182;4.474;2023-05-02T03:28:58;102230.94;;;9.77;76.38
72612;BME280;60655;52.182;4.474;2023-05-02T03:30:59;102233.25;;;9.80;77.03
72612;BME280;60655;52.182;4.474;2023-05-02T03:33:00;102237.75;;;9.94;76.17
72612;BME280;60655;52.182;4.474;2023-05-02T03:35:04;102242.66;;;10.05;76.90
72612;BME280;60655;52.182;4.474;2023-05-02T03:37:05;102240.84;;;10.06;76.64
72612;BME280;60655;52.182;4.474;2023-05-02T03:39:06;102235.06;;;10.02;76.09
72612;BME280;60655;52.182;4.474;2023-05-02T03:41:07;102240.94;;;9.90;76.25
72612;BME280;60655;52.182;4.474;2023-05-02T03:43:08;102238.81;;;9.85;76.13
72612;BME280;60655;52.182;4.474;2023-05-02T03:45:09;102243.19;;;10.01;76.31
72612;BME280;60655;52.182;4.474;2023-05-02T03:47:11;102248.44;;;9.86;77.47
72612;BME280;60655;52.182;4.474;2023-05-02T03:49:13;102257.34;;;9.93;77.26
72612;BME280;60655;52.182;4.474;2023-05-02T03:51:14;102251.91;;;9.87;76.15
72612;BME280;60655;52.182;4.474;2023-05-02T03:53:15;102258.03;;;9.87;76.80
72612;BME280;60655;52.182;4.474;2023-05-02T03:55:16;102265.19;;;9.87;77.80
72612;BME280;60655;52.182;4.474;2023-05-02T03:57:17;102262.78;;;9.77;77.12
72612;BME280;60655;52.182;4.474;2023-05-02T03:59:18;102260.28;;;9.53;77.61
72612;BME280;60655;52.182;4.474;2023-05-02T04:01:20;102269.59;;;9.71;78.15
72612;BME280;60655;52.182;4.474;2023-05-02T04:03:21;102266.38;;;9.53;77.21
72612;BME280;60655;52.182;4.474;2023-05-02T04:05:22;102271.47;;;9.63;77.65
72612;BME280;60655;52.182;4.474;2023-05-02T04:07:23;102270.25;;;9.73;77.28
72612;BME280;60655;52.182;4.474;2023-05-02T04:09:25;102272.41;;;9.78;76.92
72612;BME280;60655;52.182;4.474;2023-05-02T04:11:26;102276.03;;;9.77;77.03
72612;BME280;60655;52.182;4.474;2023-05-02T04:13:27;102276.03;;;9.77;77.55
72612;BME280;60655;52.182;4.474;2023-05-02T04:15:30;102273.50;;;9.83;75.95
72612;BME280;60655;52.182;4.474;2023-05-02T04:17:31;102288.97;;;9.80;77.03
72612;BME280;60655;52.182;4.474;2023-05-02T04:19:33;102287.41;;;9.63;76.67
72612;BME280;60655;52.182;4.474;2023-05-02T04:21:35;102276.63;;;9.56;77.46
72612;BME280;60655;52.182;4.474;2023-05-02T04:23:37;102284.16;;;9.53;78.54
72612;BME280;60655;52.182;4.474;2023-05-02T04:25:38;102294.00;;;9.67;77.25
72612;BME280;60655;52.182;4.474;2023-05-02T04:27:38;102291.69;;;9.64;78.78
72612;BME280;60655;52.182;4.474;2023-05-02T04:29:39;102290.84;;;9.71;76.89
72612;BME280;60655;52.182;4.474;2023-05-02T04:31:41;102299.78;;;9.70;78.04
72612;BME280;60655;52.182;4.474;2023-05-02T04:33:42;102298.66;;;9.65;77.30
72612;BME280;60655;52.182;4.474;2023-05-02T04:35:42;102305.63;;;9.66;76.98
72612;BME280;60655;52.182;4.474;2023-05-02T04:37:44;102307.81;;;9.54;77.97
72612;BME280;60655;52.182;4.474;2023-05-02T04:39:45;102306.81;;;9.55;77.49
72612;BME280;60655;52.182;4.474;2023-05-02T04:41:46;102317.09;;;9.58;77.57
72612;BME280;60655;52.182;4.474;2023-05-02T04:43:47;102322.38;;;9.66;77.55
72612;BME280;60655;52.182;4.474;2023-05-02T04:45:48;102327.50;;;9.68;77.23
72612;BME280;60655;52.182;4.474;2023-05-02T04:47:49;102324.56;;;9.55;77.69
72612;BME280;60655;52.182;4.474;2023-05-02T04:49:50;102329.03;;;9.54;77.33
72612;BME280;60655;52.182;4.474;2023-05-02T04:51:51;102327.84;;;9.65;76.74
72612;BME280;60655;52.182;4.474;2023-05-02T04:53:53;102335.91;;;9.40;76.40
72612;BME280;60655;52.182;4.474;2023-05-02T04:55:53;102337.22;;;9.44;76.35
72612;BME280;60655;52.182;4.474;2023-05-02T04:57:54;102333.91;;;9.42;76.23
72612;BME280;60655;52.182;4.474;2023-05-02T04:59:55;102341.63;;;9.60;77.72
72612;BME280;60655;52.182;4.474;2023-05-02T05:01:57;102334.09;;;9.80;75.81
72612;BME280;60655;52.182;4.474;2023-05-02T05:03:58;102337.59;;;9.72;75.51
72612;BME280;60655;52.182;4.474;2023-05-02T05:05:59;102352.38;;;9.67;73.79
72612;BME280;60655;52.182;4.474;2023-05-02T05:08:00;102340.38;;;9.48;74.34
72612;BME280;60655;52.182;4.474;2023-05-02T05:10:01;102348.97;;;9.50;75.33
72612;BME280;60655;52.182;4.474;2023-05-02T05:12:02;102347.00;;;9.52;75.20
72612;BME280;60655;52.182;4.474;2023-05-02T05:14:03;102349.75;;;9.59;75.54
72612;BME280;60655;52.182;4.474;2023-05-02T05:16:04;102353.75;;;9.55;74.31
72612;BME280;60655;52.182;4.474;2023-05-02T05:18:05;102349.81;;;9.51;74.61
72612;BME280;60655;52.182;4.474;2023-05-02T05:20:07;102356.78;;;9.52;73.55
72612;BME280;60655;52.182;4.474;2023-05-02T05:22:09;102358.06;;;9.56;74.37
72612;BME280;60655;52.182;4.474;2023-05-02T05:24:10;102356.69;;;9.68;74.63
72612;BME280;60655;52.182;4.474;2023-05-02T05:26:12;102366.66;;;9.58;73.26
72612;BME280;60655;52.182;4.474;2023-05-02T05:28:13;102376.09;;;9.68;72.96
72612;BME280;60655;52.182;4.474;2023-05-02T05:30:14;102370.75;;;9.76;74.74
72612;BME280;60655;52.182;4.474;2023-05-02T05:32:15;102379.66;;;9.83;73.10
72612;BME280;60655;52.182;4.474;2023-05-02T05:34:16;102378.00;;;9.82;73.74
72612;BME280;60655;52.182;4.474;2023-05-02T05:36:17;102378.13;;;9.97;73.23
72612;BME280;60655;52.182;4.474;2023-05-02T05:38:18;102382.13;;;9.93;73.37
72612;BME280;60655;52.182;4.474;2023-05-02T05:40:19;102381.78;;;9.88;73.38
72612;BME280;60655;52.182;4.474;2023-05-02T05:42:21;102394.06;;;9.89;72.54
72612;BME280;60655;52.182;4.474;2023-05-02T05:44:22;102396.41;;;9.84;71.22
72612;BME280;60655;52.182;4.474;2023-05-02T05:46:23;102395.84;;;9.58;72.41
72612;BME280;60655;52.182;4.474;2023-05-02T05:48:24;102397.72;;;9.49;70.13
72612;BME280;60655;52.182;4.474;2023-05-02T05:50:25;102409.94;;;9.58;70.33
72612;BME280;60655;52.182;4.474;2023-05-02T05:52:26;102416.59;;;9.54;70.53
72612;BME280;60655;52.182;4.474;2023-05-02T05:54:27;102415.31;;;9.42;70.83
72612;BME280;60655;52.182;4.474;2023-05-02T05:56:28;102416.63;;;9.46;70.23
72612;BME280;60655;52.182;4.474;2023-05-02T05:58:29;102428.84;;;9.55;69.60
72612;BME280;60655;52.182;4.474;2023-05-02T06:00:33;102431.16;;;9.66;69.48
72612;BME280;60655;52.182;4.474;2023-05-02T06:02:35;102434.78;;;9.81;68.54
72612;BME280;60655;52.182;4.474;2023-05-02T06:04:36;102434.94;;;9.80;69.70
72612;BME280;60655;52.182;4.474;2023-05-02T06:06:36;102444.28;;;9.60;70.00
72612;BME280;60655;52.182;4.474;2023-05-02T06:08:37;102444.44;;;9.66;71.19
72612;BME280;60655;52.182;4.474;2023-05-02T06:10:38;102454.69;;;9.77;71.46
72612;BME280;60655;52.182;4.474;2023-05-02T06:12:39;102448.50;;;9.85;70.84
72612;BME280;60655;52.182;4.474;2023-05-02T06:14:40;102458.09;;;9.94;71.21
72612;BME280;60655;52.182;4.474;2023-05-02T06:16:41;102458.94;;;9.87;70.08
72612;BME280;60655;52.182;4.474;2023-05-02T06:18:43;102454.47;;;9.87;71.36
72612;BME280;60655;52.182;4.474;2023-05-02T06:20:44;102456.28;;;9.87;69.72
72612;BME280;60655;52.182;4.474;2023-05-02T06:22:45;102441.41;;;9.77;68.65
72612;BME280;60655;52.182;4.474;2023-05-02T06:24:46;102453.47;;;9.88;69.83
72612;BME280;60655;52.182;4.474;2023-05-02T06:26:47;102456.28;;;9.87;67.56
72612;BME280;60655;52.182;4.474;2023-05-02T06:28:48;102443.00;;;9.95;69.36
72612;BME280;60655;52.182;4.474;2023-05-02T06:30:59;102467.75;;;9.87;67.52
72612;BME280;60655;52.182;4.474;2023-05-02T06:33:03;102468.00;;;10.08;68.13
72612;BME280;60655;52.182;4.474;2023-05-02T06:35:04;102474.38;;;9.91;68.23
72612;BME280;60655;52.182;4.474;2023-05-02T06:37:05;102483.34;;;9.82;66.88
72612;BME280;60655;52.182;4.474;2023-05-02T06:39:06;102480.25;;;9.70;68.81
72612;BME280;60655;52.182;4.474;2023-05-02T06:41:12;102483.66;;;9.95;67.79
72612;BME280;60655;52.182;4.474;2023-05-02T06:43:14;102487.16;;;9.88;67.15
72612;BME280;60655;52.182;4.474;2023-05-02T06:45:15;102495.31;;;9.78;69.40
72612;BME280;60655;52.182;4.474;2023-05-02T06:47:16;102510.44;;;9.69;70.91
72612;BME280;60655;52.182;4.474;2023-05-02T06:49:17;102507.63;;;9.55;68.66
72612;BME280;60655;52.182;4.474;2023-05-02T06:51:18;102515.59;;;9.46;70.09
72612;BME280;60655;52.182;4.474;2023-05-02T06:53:20;102519.88;;;9.56;69.02
72612;BME280;60655;52.182;4.474;2023-05-02T06:55:21;102515.56;;;9.55;68.51
72612;BME280;60655;52.182;4.474;2023-05-02T06:57:23;102518.09;;;9.40;69.14
72612;BME280;60655;52.182;4.474;2023-05-02T06:59:24;102510.28;;;9.63;67.43
72612;BME280;60655;52.182;4.474;2023-05-02T07:01:25;102522.19;;;9.75;67.66
72612;BME280;60655;52.182;4.474;2023-05-02T07:03:27;102524.69;;;9.76;67.47
72612;BME280;60655;52.182;4.474;2023-05-02T07:05:28;102522.88;;;9.77;67.36
72612;BME280;60655;52.182;4.474;2023-05-02T07:07:29;102527.50;;;9.75;66.39
72612;BME280;60655;52.182;4.474;2023-05-02T07:09:30;102531.25;;;9.97;67.81
72612;BME280;60655;52.182;4.474;2023-05-02T07:11:31;102524.28;;;10.04;64.75
72612;BME280;60655;52.182;4.474;2023-05-02T07:13:32;102524.88;;;10.14;66.32
72612;BME280;60655;52.182;4.474;2023-05-02T07:15:33;102525.59;;;10.08;64.09
72612;BME280;60655;52.182;4.474;2023-05-02T07:17:34;102525.72;;;10.23;64.80
72612;BME280;60655;52.182;4.474;2023-05-02T07:19:35;102521.34;;;10.38;63.21
72612;BME280;60655;52.182;4.474;2023-05-02T07:21:36;102519.78;;;10.52;59.46
72612;BME280;60655;52.182;4.474;2023-05-02T07:23:37;102514.22;;;10.38;60.47
72612;BME280;60655;52.182;4.474;2023-05-02T07:25:38;102523.78;;;10.78;58.31
72612;BME280;60655;52.182;4.474;2023-05-02T07:27:39;102527.94;;;10.42;58.20
72612;BME280;60655;52.182;4.474;2023-05-02T07:29:40;102529.09;;;10.47;57.87
72612;BME280;60655;52.182;4.474;2023-05-02T07:31:42;102539.97;;;10.30;57.96
72612;BME280;60655;52.182;4.474;2023-05-02T07:33:43;102542.38;;;10.00;57.44
72612;BME280;60655;52.182;4.474;2023-05-02T07:35:44;102543.03;;;9.94;56.48
72612;BME280;60655;52.182;4.474;2023-05-02T07:37:45;102549.03;;;9.88;57.15
72612;BME280;60655;52.182;4.474;2023-05-02T07:39:46;102551.28;;;10.24;57.64
72612;BME280;60655;52.182;4.474;2023-05-02T07:41:52;102547.16;;;10.60;55.27
72612;BME280;60655;52.182;4.474;2023-05-02T07:43:54;102556.72;;;10.69;55.84
72612;BME280;60655;52.182;4.474;2023-05-02T07:45:55;102548.00;;;10.83;53.83
72612;BME280;60655;52.182;4.474;2023-05-02T07:47:56;102552.41;;;10.68;54.61
72612;BME280;60655;52.182;4.474;2023-05-02T07:49:57;102562.44;;;10.58;53.15
72612;BME280;60655;52.182;4.474;2023-05-02T07:51:58;102565.06;;;10.19;52.67
72612;BME280;60655;52.182;4.474;2023-05-02T07:53:59;102567.22;;;10.15;52.21
72612;BME280;60655;52.182;4.474;2023-05-02T07:56:03;102577.88;;;9.99;52.49
72612;BME280;60655;52.182;4.474;2023-05-02T07:58:08;102569.69;;;10.33;52.76
72612;BME280;60655;52.182;4.474;2023-05-02T08:00:09;102571.44;;;10.49;51.65
72612;BME280;60655;52.182;4.474;2023-05-02T08:02:11;102567.41;;;10.61;52.84
72612;BME280;60655;52.182;4.474;2023-05-02T08:04:13;102567.31;;;10.77;51.56
72612;BME280;60655;52.182;4.474;2023-05-02T08:06:14;102579.56;;;10.47;51.86
72612;BME280;60655;52.182;4.474;2023-05-02T08:08:15;102567.53;;;10.68;54.78
72612;BME280;60655;52.182;4.474;2023-05-02T08:10:16;102564.13;;;11.05;52.97
72612;BME280;60655;52.182;4.474;2023-05-02T08:12:17;102568.53;;;11.21;51.96
72612;BME280;60655;52.182;4.474;2023-05-02T08:14:18;102571.38;;;10.96;52.03
72612;BME280;60655;52.182;4.474;2023-05-02T08:16:19;102574.06;;;10.57;51.40
72612;BME280;60655;52.182;4.474;2023-05-02T08:18:20;102582.06;;;10.49;53.77
72612;BME280;60655;52.182;4.474;2023-05-02T08:20:21;102569.91;;;10.86;52.17
72612;BME280;60655;52.182;4.474;2023-05-02T08:22:22;102571.66;;;11.24;51.14
72612;BME280;60655;52.182;4.474;2023-05-02T08:24:23;102579.19;;;11.58;50.58
72612;BME280;60655;52.182;4.474;2023-05-02T08:26:24;102570.38;;;11.80;49.79
72612;BME280;60655;52.182;4.474;2023-05-02T08:28:25;102576.78;;;11.86;50.16
72612;BME280;60655;52.182;4.474;2023-05-02T08:30:26;102587.28;;;11.65;51.11
72612;BME280;60655;52.182;4.474;2023-05-02T08:32:27;102590.56;;;11.52;52.53
72612;BME280;60655;52.182;4.474;2023-05-02T08:34:29;102588.75;;;11.53;51.42
72612;BME280;60655;52.182;4.474;2023-05-02T08:36:30;102589.28;;;11.48;52.63
72612;BME280;60655;52.182;4.474;2023-05-02T08:38:31;102591.06;;;11.70;51.76
72612;BME280;60655;52.182;4.474;2023-05-02T08:40:36;102605.72;;;11.52;52.05
72612;BME280;60655;52.182;4.474;2023-05-02T08:42:40;102598.63;;;11.44;50.43
72612;BME280;60655;52.182;4.474;2023-05-02T08:44:42;102598.19;;;11.32;49.76
72612;BME280;60655;52.182;4.474;2023-05-02T08:46:43;102606.34;;;11.31;48.18
72612;BME280;60655;52.182;4.474;2023-05-02T08:48:48;102602.81;;;11.15;49.54
72612;BME280;60655;52.182;4.474;2023-05-02T08:50:51;102610.75;;;11.46;50.21
72612;BME280;60655;52.182;4.474;2023-05-02T08:52:52;102598.84;;;11.95;47.19
72612;BME280;60655;52.182;4.474;2023-05-02T08:54:54;102582.97;;;12.31;47.12
72612;BME280;60655;52.182;4.474;2023-05-02T08:56:55;102602.44;;;12.46;46.34
72612;BME280;60655;52.182;4.474;2023-05-02T08:58:59;102602.34;;;12.54;46.14
72612;BME280;60655;52.182;4.474;2023-05-02T09:01:02;102596.81;;;12.56;46.41
72612;BME280;60655;52.182;4.474;2023-05-02T09:03:25;102596.47;;;12.59;47.32
72612;BME280;60655;52.182;4.474;2023-05-02T09:05:37;102598.19;;;11.93;49.37
72612;BME280;60655;52.182;4.474;2023-05-02T09:07:48;102606.47;;;12.57;47.53
72612;BME280;60655;52.182;4.474;2023-05-02T09:09:49;102599.84;;;12.67;48.35
72612;BME280;60655;52.182;4.474;2023-05-02T09:11:50;102596.84;;;12.41;47.66
72612;BME280;60655;52.182;4.474;2023-05-02T09:13:52;102614.19;;;11.93;49.39
72612;BME280;60655;52.182;4.474;2023-05-02T09:16:20;102631.38;;;11.22;51.09
72612;BME280;60655;52.182;4.474;2023-05-02T09:18:22;102629.06;;;10.88;52.98
72612;BME280;60655;52.182;4.474;2023-05-02T09:20:23;102636.28;;;11.02;53.90
72612;BME280;60655;52.182;4.474;2023-05-02T09:22:24;102636.13;;;11.03;52.76
72612;BME280;60655;52.182;4.474;2023-05-02T09:24:25;102639.72;;;11.41;50.13
72612;BME280;60655;52.182;4.474;2023-05-02T09:26:30;102632.97;;;11.54;50.30
72612;BME280;60655;52.182;4.474;2023-05-02T09:28:37;102629.81;;;11.73;49.10
72612;BME280;60655;52.182;4.474;2023-05-02T09:30:39;102631.25;;;11.83;50.08
72612;BME280;60655;52.182;4.474;2023-05-02T09:32:44;102630.78;;;11.80;49.80
72612;BME280;60655;52.182;4.474;2023-05-02T09:35:04;102634.16;;;12.11;48.22
72612;BME280;60655;52.182;4.474;2023-05-02T09:37:06;102628.06;;;12.17;49.92
72612;BME280;60655;52.182;4.474;2023-05-02T09:39:12;102638.72;;;12.17;50.65
72612;BME280;60655;52.182;4.474;2023-05-02T09:41:14;102632.16;;;11.53;51.24
72612;BME280;60655;52.182;4.474;2023-05-02T09:43:15;102638.69;;;11.65;50.18
72612;BME280;60655;52.182;4.474;2023-05-02T09:45:24;102641.00;;;11.68;50.32
72612;BME280;60655;52.182;4.474;2023-05-02T09:47:25;102642.94;;;11.74;51.49
72612;BME280;60655;52.182;4.474;2023-05-02T09:49:43;102648.69;;;11.63;50.46
72612;BME280;60655;52.182;4.474;2023-05-02T09:51:48;102646.28;;;11.76;48.69
72612;BME280;60655;52.182;4.474;2023-05-02T09:53:50;102652.47;;;11.69;50.27
72612;BME280;60655;52.182;4.474;2023-05-02T09:56:01;102660.44;;;11.54;50.15
72612;BME280;60655;52.182;4.474;2023-05-02T09:58:03;102661.81;;;11.65;50.84
72612;BME280;60655;52.182;4.474;2023-05-02T10:00:06;102665.31;;;11.88;51.12
72612;BME280;60655;52.182;4.474;2023-05-02T10:02:08;102660.06;;;12.47;50.83
72612;BME280;60655;52.182;4.474;2023-05-02T10:04:12;102665.03;;;12.35;49.55
72612;BME280;60655;52.182;4.474;2023-05-02T10:06:17;102659.69;;;12.21;51.98
72612;BME280;60655;52.182;4.474;2023-05-02T10:08:20;102665.31;;;11.42;51.16
72612;BME280;60655;52.182;4.474;2023-05-02T10:10:21;102663.13;;;11.69;52.31
72612;BME280;60655;52.182;4.474;2023-05-02T10:12:25;102662.44;;;11.52;53.96
72612;BME280;60655;52.182;4.474;2023-05-02T10:14:26;102661.03;;;11.33;52.80
72612;BME280;60655;52.182;4.474;2023-05-02T10:16:29;102654.91;;;11.56;53.32
72612;BME280;60655;52.182;4.474;2023-05-02T10:19:06;102665.59;;;11.93;50.65
72612;BME280;60655;52.182;4.474;2023-05-02T10:21:10;102671.81;;;11.63;51.00
72612;BME280;60655;52.182;4.474;2023-05-02T10:23:11;102669.69;;;12.18;49.79
72612;BME280;60655;52.182;4.474;2023-05-02T10:25:14;102671.53;;;12.03;50.37
72612;BME280;60655;52.182;4.474;2023-05-02T10:27:15;102687.56;;;11.72;49.06
72612;BME280;60655;52.182;4.474;2023-05-02T10:29:17;102677.84;;;12.02;47.57
72612;BME280;60655;52.182;4.474;2023-05-02T10:31:19;102681.16;;;12.04;49.51
72612;BME280;60655;52.182;4.474;2023-05-02T10:33:22;102678.44;;;11.90;48.76
72612;BME280;60655;52.182;4.474;2023-05-02T10:35:24;102670.59;;;11.73;49.25
72612;BME280;60655;52.182;4.474;2023-05-02T10:37:26;102675.03;;;12.18;49.90
72612;BME280;60655;52.182;4.474;2023-05-02T10:39:29;102681.69;;;12.00;49.35
72612;BME280;60655;52.182;4.474;2023-05-02T10:41:33;102673.56;;;12.45;48.58
72612;BME280;60655;52.182;4.474;2023-05-02T10:43:35;102670.66;;;12.40;48.73
72612;BME280;60655;52.182;4.474;2023-05-02T10:45:37;102694.81;;;12.39;49.15
72612;BME280;60655;52.182;4.474;2023-05-02T10:47:38;102692.25;;;12.60;48.83
72612;BME280;60655;52.182;4.474;2023-05-02T10:50:00;102678.91;;;12.90;48.84
72612;BME280;60655;52.182;4.474;2023-05-02T10:52:28;102688.94;;;12.88;47.16
72612;BME280;60655;52.182;4.474;2023-05-02T10:54:29;102680.84;;;12.81;47.98
72612;BME280;60655;52.182;4.474;2023-05-02T10:56:30;102681.09;;;12.86;46.97
72612;BME280;60655;52.182;4.474;2023-05-02T10:58:31;102680.50;;;12.40;46.61
72612;BME280;60655;52.182;4.474;2023-05-02T11:00:33;102669.28;;;12.59;46.68
72612;BME280;60655;52.182;4.474;2023-05-02T11:05:03;102692.56;;;13.01;44.85
72612;BME280;60655;52.182;4.474;2023-05-02T11:11:38;102693.22;;;13.18;45.22
72612;BME280;60655;52.182;4.474;2023-05-02T11:13:47;102705.34;;;13.06;44.04